Terminal Aerodrome Forecast
Issued by NWS Cleveland, OH

Home | Current Version | Previous Version | Text Only | Print | Product List | Glossary On
Versions: 1 2 3 4 5 6 7 8 9 10 11 12 13 14 15 16 17 18 19
000
FTUS41 KCLE 262320
TAFCAK
TAF
KCAK 262320Z 2700/2724 18011KT P6SM SCT250
     FM271500 18014G22KT P6SM BKN040 OVC120
     FM271900 20015G25KT 5SM -SHRA VCTS OVC025CB=

USA.gov is the U.S. government's official web portal to all federal, state and local government web resources and services.